createdAt,value
2022-10-17T00:02:03.321Z,62.55
2022-10-17T00:04:30.785Z,62.43
2022-10-17T00:06:58.213Z,62.40
2022-10-17T00:09:25.638Z,62.29
2022-10-17T00:11:54.459Z,62.25
2022-10-17T00:14:21.910Z,62.31
2022-10-17T00:16:49.374Z,62.20
2022-10-17T00:19:16.816Z,62.25
2022-10-17T00:21:44.257Z,62.31
2022-10-17T00:24:11.692Z,62.34
2022-10-17T00:26:39.208Z,62.52
2022-10-17T00:29:08.000Z,62.09
2022-10-17T00:31:35.707Z,62.30
2022-10-17T00:34:03.124Z,62.34
2022-10-17T00:36:30.772Z,62.50
2022-10-17T00:38:59.187Z,62.24
2022-10-17T00:41:28.375Z,62.23
2022-10-17T00:43:57.990Z,62.22
2022-10-17T00:46:27.702Z,62.44
2022-10-17T00:48:55.917Z,62.34
2022-10-17T00:51:30.094Z,62.40
2022-10-17T00:53:57.569Z,62.39
2022-10-17T00:56:25.041Z,62.46
2022-10-17T00:58:52.558Z,62.11
2022-10-17T01:01:20.134Z,62.23
2022-10-17T01:03:48.974Z,62.28
2022-10-17T01:06:16.471Z,62.39
2022-10-17T01:08:43.899Z,62.02
2022-10-17T01:11:18.254Z,62.39
2022-10-17T01:13:47.453Z,62.10
2022-10-17T01:16:16.262Z,62.20
2022-10-17T01:18:52.326Z,62.14
2022-10-17T01:21:32.431Z,62.14
2022-10-17T01:24:11.146Z,62.42
2022-10-17T01:26:45.502Z,62.27
2022-10-17T01:29:34.478Z,62.39
2022-10-17T01:32:03.982Z,62.43
2022-10-17T01:34:33.289Z,62.21
2022-10-17T01:37:03.382Z,62.10
2022-10-17T01:39:33.387Z,62.33
2022-10-17T01:42:04.172Z,62.19
2022-10-17T01:44:35.227Z,62.12
2022-10-17T01:47:05.429Z,62.11
2022-10-17T01:49:32.953Z,62.31
2022-10-17T01:52:02.778Z,62.29
2022-10-17T01:54:32.479Z,62.31
2022-10-17T01:57:01.326Z,62.44
2022-10-17T01:59:31.010Z,62.24
2022-10-17T02:01:58.569Z,62.23
2022-10-17T02:04:27.573Z,62.46
2022-10-17T02:06:55.049Z,62.46
2022-10-17T02:09:23.654Z,62.10
2022-10-17T02:12:02.494Z,62.44
2022-10-17T02:14:34.500Z,62.34
2022-10-17T02:17:06.589Z,62.10
2022-10-17T02:19:42.158Z,62.36
2022-10-17T02:22:18.030Z,62.53
2022-10-17T02:24:48.167Z,62.31
2022-10-17T02:27:15.926Z,62.54
2022-10-17T02:29:47.383Z,62.39
2022-10-17T02:32:17.167Z,62.50
2022-10-17T02:34:47.344Z,62.56
2022-10-17T02:37:15.418Z,62.37
2022-10-17T02:39:42.839Z,62.55
2022-10-17T02:42:11.338Z,62.19
2022-10-17T02:44:38.906Z,62.22
2022-10-17T02:47:10.166Z,62.35
2022-10-17T02:49:39.545Z,62.49
2022-10-17T02:52:11.617Z,62.24
2022-10-17T02:54:40.756Z,62.45
2022-10-17T02:57:09.742Z,62.48
2022-10-17T02:59:37.196Z,62.22
2022-10-17T03:02:04.844Z,62.42
2022-10-17T03:04:32.290Z,62.25
2022-10-17T03:06:59.768Z,62.21
2022-10-17T03:09:28.554Z,62.07
2022-10-17T03:11:56.001Z,62.36
2022-10-17T03:14:23.422Z,62.47
2022-10-17T03:16:50.876Z,62.30
2022-10-17T03:19:18.322Z,62.21
2022-10-17T03:21:45.789Z,62.28
2022-10-17T03:24:13.366Z,62.15
2022-10-17T03:26:42.179Z,62.48
2022-10-17T03:29:09.682Z,62.20
2022-10-17T03:31:37.202Z,62.36
2022-10-17T03:34:04.658Z,62.46
2022-10-17T03:36:32.120Z,62.32
2022-10-17T03:38:59.551Z,62.39
2022-10-17T03:41:27.008Z,62.47
2022-10-17T03:43:55.756Z,62.15
2022-10-17T03:46:23.261Z,62.38
2022-10-17T03:48:50.706Z,62.21
2022-10-17T03:51:18.153Z,62.26
2022-10-17T03:53:45.608Z,62.14
2022-10-17T03:56:13.889Z,62.23
2022-10-17T03:58:41.624Z,62.41
2022-10-17T04:01:11.500Z,62.17
2022-10-17T04:03:39.017Z,62.43
2022-10-17T04:06:06.710Z,62.31
2022-10-17T04:08:34.428Z,62.17
2022-10-17T04:11:01.906Z,62.29
2022-10-17T04:13:29.429Z,62.44
2022-10-17T04:15:56.941Z,62.19
2022-10-17T04:18:25.939Z,62.51
2022-10-17T04:20:53.387Z,62.53
2022-10-17T04:23:20.838Z,62.13
2022-10-17T04:25:48.249Z,62.34
2022-10-17T04:28:15.764Z,62.18
2022-10-17T04:30:45.500Z,62.21
2022-10-17T04:33:13.190Z,62.46
2022-10-17T04:35:41.952Z,62.20
2022-10-17T04:38:09.441Z,62.49
2022-10-17T04:40:37.430Z,62.46
2022-10-17T04:43:04.877Z,62.24
2022-10-17T04:45:32.354Z,62.46
2022-10-17T04:47:59.782Z,62.33
2022-10-17T04:50:27.323Z,62.36
2022-10-17T04:52:56.069Z,62.50
2022-10-17T04:55:23.492Z,62.11
2022-10-17T04:57:51.011Z,62.18
2022-10-17T05:00:18.540Z,62.45
2022-10-17T05:02:46.202Z,62.18
2022-10-17T05:05:13.656Z,62.26
2022-10-17T05:07:41.115Z,62.30
2022-10-17T05:10:10.533Z,61.99
2022-10-17T05:12:37.961Z,61.91
2022-10-17T05:15:06.382Z,61.96
2022-10-17T05:17:33.826Z,62.22
2022-10-17T05:20:01.272Z,62.32
2022-10-17T05:22:28.964Z,62.36
2022-10-17T05:24:56.930Z,62.13
2022-10-17T05:27:25.718Z,62.06
2022-10-17T05:29:53.154Z,61.93
2022-10-17T05:32:20.625Z,62.07
2022-10-17T05:34:48.242Z,61.85
2022-10-17T05:37:15.667Z,61.70
2022-10-17T05:39:43.085Z,62.00
2022-10-17T05:42:10.532Z,61.92
2022-10-17T05:44:39.603Z,61.78
2022-10-17T05:47:07.040Z,61.87
2022-10-17T05:49:45.995Z,61.87
2022-10-17T05:52:17.366Z,62.16
2022-10-17T05:54:45.031Z,61.95
2022-10-17T05:57:12.835Z,61.73
2022-10-17T05:59:41.579Z,61.72
2022-10-17T06:02:10.137Z,61.99
2022-10-17T06:04:37.889Z,62.37
2022-10-17T06:07:05.853Z,62.53
2022-10-17T06:09:33.336Z,62.96
2022-10-17T06:12:00.800Z,64.05
2022-10-17T06:14:28.253Z,63.33
2022-10-17T06:16:57.017Z,63.34
2022-10-17T06:19:24.466Z,63.29
2022-10-17T06:21:51.897Z,63.58
2022-10-17T06:24:19.336Z,63.91
2022-10-17T06:26:47.551Z,64.01
2022-10-17T06:29:14.977Z,63.82
2022-10-17T06:31:42.429Z,63.62
2022-10-17T06:34:11.265Z,64.06
2022-10-17T06:36:38.694Z,64.78
2022-10-17T06:39:06.161Z,64.36
2022-10-17T06:41:33.616Z,64.45
2022-10-17T06:44:01.049Z,64.54
2022-10-17T06:46:29.741Z,64.40
2022-10-17T06:48:57.191Z,64.57
2022-10-17T06:51:25.949Z,64.11
2022-10-17T06:53:53.505Z,64.27
2022-10-17T06:56:20.978Z,64.27
2022-10-17T06:58:50.677Z,64.28
2022-10-17T07:01:18.192Z,64.10
2022-10-17T07:03:48.443Z,64.09
2022-10-17T07:06:15.887Z,64.38
2022-10-17T07:08:44.966Z,64.19
2022-10-17T07:11:12.512Z,64.07
2022-10-17T07:13:40.044Z,64.11
2022-10-17T07:16:07.872Z,64.25
2022-10-17T07:18:35.352Z,64.19
2022-10-17T07:21:03.698Z,63.96
2022-10-17T07:23:31.147Z,63.99
2022-10-17T07:26:02.241Z,63.97
2022-10-17T07:28:29.781Z,64.08
2022-10-17T07:30:57.236Z,63.90
2022-10-17T07:33:24.718Z,63.96
2022-10-17T07:35:53.137Z,63.98
2022-10-17T07:38:20.676Z,63.99
2022-10-17T07:40:55.041Z,64.02
2022-10-17T07:43:24.092Z,63.99
2022-10-17T07:45:51.701Z,63.85
2022-10-17T07:48:19.227Z,63.87
2022-10-17T07:50:46.842Z,63.65
2022-10-17T07:53:14.301Z,63.86
2022-10-17T07:55:42.272Z,63.55
2022-10-17T07:58:09.936Z,63.67
2022-10-17T08:00:38.956Z,63.59
2022-10-17T08:03:06.871Z,63.42
2022-10-17T08:05:34.459Z,63.59
2022-10-17T08:08:01.954Z,63.57
2022-10-17T08:10:29.684Z,64.12
2022-10-17T08:12:57.875Z,63.83
2022-10-17T08:15:29.331Z,64.04
2022-10-17T08:18:00.723Z,63.86
2022-10-17T08:20:28.247Z,63.97
2022-10-17T08:22:55.845Z,63.89
2022-10-17T08:25:23.708Z,63.91
2022-10-17T08:27:51.138Z,63.93
2022-10-17T08:30:18.733Z,63.73
2022-10-17T08:32:46.165Z,63.75
2022-10-17T08:35:15.623Z,63.81
2022-10-17T08:37:43.076Z,63.54
2022-10-17T08:40:14.529Z,63.66
2022-10-17T08:42:49.905Z,63.88
2022-10-17T08:45:21.981Z,63.37
2022-10-17T08:47:52.649Z,63.78
2022-10-17T08:50:28.964Z,63.85
2022-10-17T08:52:57.764Z,63.97
2022-10-17T08:55:29.606Z,63.91
2022-10-17T08:57:57.070Z,63.83
2022-10-17T09:00:24.484Z,63.79
2022-10-17T09:02:58.737Z,63.88
2022-10-17T09:05:35.949Z,64.01
2022-10-17T09:08:11.095Z,63.84
2022-10-17T09:10:46.107Z,63.80
2022-10-17T09:13:20.482Z,64.11
2022-10-17T09:15:59.958Z,63.99
2022-10-17T09:18:28.463Z,64.08
2022-10-17T09:20:58.851Z,63.93
2022-10-17T09:23:27.354Z,63.92
2022-10-17T09:25:56.652Z,63.57
2022-10-17T09:28:26.765Z,63.79
2022-10-17T09:30:55.320Z,64.00
2022-10-17T09:33:35.379Z,63.60
2022-10-17T09:36:18.683Z,63.28
2022-10-17T09:38:48.675Z,63.63
2022-10-17T09:44:18.650Z,63.46
2022-10-17T09:46:52.750Z,63.52
2022-10-17T09:49:22.330Z,63.22
2022-10-17T09:51:51.064Z,63.10
2022-10-17T09:54:20.914Z,62.88
2022-10-17T09:56:58.441Z,63.29
2022-10-17T09:59:31.727Z,63.21
2022-10-17T10:02:10.707Z,63.39
2022-10-17T10:04:59.615Z,63.65
2022-10-17T10:07:29.355Z,63.68
2022-10-17T10:09:57.125Z,63.33
2022-10-17T10:12:26.076Z,63.17
2022-10-17T10:14:55.389Z,63.13
2022-10-17T10:17:43.960Z,63.02
2022-10-17T10:20:29.387Z,63.40
2022-10-17T10:23:17.122Z,63.59
2022-10-17T10:25:54.760Z,63.90
2022-10-17T10:28:24.198Z,63.84
2022-10-17T10:30:52.119Z,63.84
2022-10-17T10:33:20.341Z,63.74
2022-10-17T10:35:53.586Z,63.89
2022-10-17T10:38:22.377Z,63.90
2022-10-17T10:40:50.695Z,63.91
2022-10-17T10:43:22.765Z,64.13
2022-10-17T10:45:50.254Z,63.98
2022-10-17T10:48:21.850Z,64.13
2022-10-17T10:50:51.024Z,64.19
2022-10-17T10:53:34.781Z,64.01
2022-10-17T10:56:05.316Z,63.82
2022-10-17T10:58:41.828Z,63.91
2022-10-17T11:01:14.307Z,63.84
2022-10-17T11:03:42.945Z,63.87
2022-10-17T11:06:13.948Z,64.15
2022-10-17T11:08:45.113Z,64.07
2022-10-17T11:11:17.964Z,64.22
2022-10-17T11:13:49.592Z,64.02
2022-10-17T11:16:24.373Z,64.06
2022-10-17T11:18:53.829Z,63.91
2022-10-17T11:21:24.446Z,64.00
2022-10-17T11:23:57.295Z,64.04
2022-10-17T11:26:27.048Z,64.13
2022-10-17T11:28:54.763Z,64.09
2022-10-17T11:31:22.856Z,64.02
2022-10-17T11:33:51.770Z,64.14
2022-10-17T11:36:20.714Z,63.83
2022-10-17T11:38:50.716Z,64.11
2022-10-17T11:41:21.795Z,64.20
2022-10-17T11:43:52.154Z,64.13
2022-10-17T11:46:21.357Z,64.09
2022-10-17T11:48:59.179Z,64.18
2022-10-17T11:54:15.850Z,63.81
2022-10-17T11:56:48.115Z,63.63
2022-10-17T11:59:41.071Z,63.56
2022-10-17T12:02:12.355Z,63.69
2022-10-17T12:04:49.403Z,63.57
2022-10-17T12:07:20.666Z,63.51
2022-10-17T12:09:50.487Z,63.34
2022-10-17T12:12:27.282Z,63.29
2022-10-17T12:14:55.076Z,63.16
2022-10-17T12:17:34.748Z,63.01
2022-10-17T12:20:31.347Z,63.08
2022-10-17T12:23:03.220Z,63.19
2022-10-17T12:25:33.429Z,63.05
2022-10-17T12:28:14.145Z,63.20
2022-10-17T12:30:52.466Z,63.12
2022-10-17T12:33:22.343Z,62.79
2022-10-17T12:35:50.898Z,62.80
2022-10-17T12:38:23.204Z,62.95
2022-10-17T12:41:01.114Z,63.10
2022-10-17T12:43:54.300Z,62.82
2022-10-17T12:46:54.306Z,63.13
2022-10-17T12:49:49.143Z,63.01
2022-10-17T12:52:25.060Z,62.98
2022-10-17T12:55:11.535Z,63.06
2022-10-17T12:57:43.664Z,63.34
2022-10-17T13:00:17.193Z,62.85
2022-10-17T13:02:44.639Z,62.99
2022-10-17T13:05:15.294Z,63.10
2022-10-17T13:07:43.489Z,63.12
2022-10-17T13:10:21.265Z,63.18
2022-10-17T13:12:48.773Z,62.88
2022-10-17T13:15:18.895Z,63.20
2022-10-17T13:17:46.225Z,63.06
2022-10-17T13:20:24.464Z,63.31
2022-10-17T13:22:55.446Z,63.14
2022-10-17T13:25:23.214Z,63.18
2022-10-17T13:27:50.756Z,63.08
2022-10-17T13:30:30.888Z,63.10
2022-10-17T13:32:59.915Z,63.10
2022-10-17T13:35:55.288Z,63.16
2022-10-17T13:38:17.048Z,62.89
2022-10-17T13:40:50.154Z,63.14
2022-10-17T13:43:18.557Z,63.11
2022-10-17T13:45:49.911Z,63.12
2022-10-17T13:48:19.909Z,63.09
2022-10-17T13:50:48.717Z,63.04
2022-10-17T13:53:21.774Z,62.99
2022-10-17T13:56:09.492Z,63.25
2022-10-17T13:58:42.737Z,63.02
2022-10-17T14:01:11.838Z,63.27
2022-10-17T14:03:48.344Z,63.19
2022-10-17T14:06:18.375Z,63.22
2022-10-17T14:09:04.454Z,63.03
2022-10-17T14:11:34.659Z,63.20
2022-10-17T14:14:02.611Z,63.20
2022-10-17T14:16:37.190Z,63.28
2022-10-17T14:19:05.044Z,63.38
2022-10-17T14:21:43.228Z,63.57
2022-10-17T14:24:25.634Z,63.50
2022-10-17T14:26:53.956Z,63.56
2022-10-17T14:29:25.944Z,63.55
2022-10-17T14:32:03.409Z,63.42
2022-10-17T14:34:32.500Z,63.47
2022-10-17T14:36:59.939Z,63.49
2022-10-17T14:39:27.517Z,63.71
2022-10-17T14:41:55.054Z,63.27
2022-10-17T14:44:27.587Z,63.42
2022-10-17T14:46:57.711Z,63.46
2022-10-17T14:49:28.439Z,63.48
2022-10-17T14:52:25.171Z,63.34
2022-10-17T14:54:52.622Z,63.69
2022-10-17T14:57:22.003Z,63.52
2022-10-17T14:59:54.154Z,63.69
2022-10-17T15:02:23.752Z,63.41
2022-10-17T15:04:53.384Z,63.38
2022-10-17T15:07:21.394Z,63.57
2022-10-17T15:09:49.738Z,63.55
2022-10-17T15:12:18.318Z,63.41
2022-10-17T15:14:47.267Z,63.69
2022-10-17T15:17:16.054Z,63.55
2022-10-17T15:19:43.530Z,63.73
2022-10-17T15:22:12.362Z,63.63
2022-10-17T15:24:39.910Z,63.66
2022-10-17T15:27:08.394Z,63.70
2022-10-17T15:29:35.862Z,63.79
2022-10-17T15:32:03.551Z,63.55
2022-10-17T15:34:31.029Z,63.77
2022-10-17T15:36:58.685Z,63.83
2022-10-17T15:39:27.558Z,63.69
2022-10-17T15:41:54.994Z,63.82
2022-10-17T15:44:22.941Z,63.78
2022-10-17T15:46:50.411Z,63.78
2022-10-17T15:49:19.649Z,63.80
2022-10-17T15:51:50.335Z,63.82
2022-10-17T15:54:19.158Z,64.00
2022-10-17T15:56:50.219Z,63.91
2022-10-17T15:59:19.461Z,63.99
2022-10-17T16:01:48.559Z,64.07
2022-10-17T16:04:16.062Z,63.96
2022-10-17T16:06:43.713Z,64.06
2022-10-17T16:09:11.196Z,63.83
2022-10-17T16:11:40.037Z,63.91
2022-10-17T16:14:11.063Z,64.08
2022-10-17T16:16:38.509Z,63.79
2022-10-17T16:19:05.994Z,64.08
2022-10-17T16:21:34.707Z,64.00
2022-10-17T16:24:02.288Z,63.91
2022-10-17T16:26:29.742Z,64.03
2022-10-17T16:28:58.083Z,64.07
2022-10-17T16:31:29.594Z,63.96
2022-10-17T16:33:57.877Z,64.08
2022-10-17T16:36:25.491Z,64.05
2022-10-17T16:38:53.974Z,64.19
2022-10-17T16:41:23.301Z,63.94
2022-10-17T16:43:51.186Z,64.01
2022-10-17T16:46:18.901Z,63.93
2022-10-17T16:48:47.885Z,64.08
2022-10-17T16:51:15.746Z,63.98
2022-10-17T16:53:44.351Z,64.26
2022-10-17T16:56:12.737Z,64.17
2022-10-17T16:58:40.322Z,64.13
2022-10-17T17:01:09.409Z,64.29
2022-10-17T17:03:37.727Z,64.30
2022-10-17T17:06:07.115Z,64.20
2022-10-17T17:08:34.725Z,64.10
2022-10-17T17:11:02.184Z,64.30
2022-10-17T17:13:29.881Z,64.18
2022-10-17T17:16:06.865Z,64.25
2022-10-17T17:18:34.413Z,64.01
2022-10-17T17:21:02.269Z,64.31
2022-10-17T17:23:33.777Z,64.17
2022-10-17T17:26:02.388Z,64.25
2022-10-17T17:28:30.045Z,64.00
2022-10-17T17:30:57.621Z,64.07
2022-10-17T17:33:25.201Z,64.21
2022-10-17T17:35:55.574Z,64.16
2022-10-17T17:38:23.266Z,64.21
2022-10-17T17:40:52.049Z,64.17
2022-10-17T17:43:19.567Z,64.13
2022-10-17T17:45:47.083Z,64.06
2022-10-17T17:48:14.682Z,64.16
2022-10-17T17:50:42.585Z,64.36
2022-10-17T17:53:10.422Z,64.32
2022-10-17T17:55:37.871Z,64.16
2022-10-17T17:58:08.061Z,64.22
2022-10-17T18:00:35.803Z,64.38
2022-10-17T18:03:03.272Z,64.18
2022-10-17T18:05:30.780Z,64.17
2022-10-17T18:07:58.236Z,64.29
2022-10-17T18:10:25.712Z,64.22
2022-10-17T18:12:53.162Z,64.21
2022-10-17T18:15:21.928Z,64.16
2022-10-17T18:17:49.357Z,64.33
2022-10-17T18:20:16.976Z,64.28
2022-10-17T18:22:44.475Z,64.35
2022-10-17T18:25:11.913Z,64.24
2022-10-17T18:27:39.426Z,64.23
2022-10-17T18:30:08.417Z,64.31
2022-10-17T18:32:37.200Z,64.28
2022-10-17T18:35:04.747Z,64.28
2022-10-17T18:37:32.314Z,64.34
2022-10-17T18:39:59.778Z,64.25
2022-10-17T18:42:27.315Z,64.33
2022-10-17T18:44:54.945Z,64.32
2022-10-17T18:47:22.375Z,64.38
2022-10-17T18:49:51.207Z,64.34
2022-10-17T18:52:18.629Z,64.22
2022-10-17T18:54:46.094Z,64.42
2022-10-17T18:57:13.529Z,64.44
2022-10-17T18:59:40.953Z,64.56
2022-10-17T19:02:09.725Z,64.41
2022-10-17T19:04:37.189Z,64.21
2022-10-17T19:07:05.986Z,64.26
2022-10-17T19:09:33.718Z,64.39
2022-10-17T19:12:01.149Z,64.41
2022-10-17T19:14:30.403Z,64.53
2022-10-17T19:16:59.530Z,64.41
2022-10-17T19:19:27.376Z,64.42
2022-10-17T19:21:54.832Z,64.45
2022-10-17T19:24:24.459Z,64.41
2022-10-17T19:26:53.507Z,64.39
2022-10-17T19:29:21.560Z,64.78
2022-10-17T19:31:49.117Z,64.37
2022-10-17T19:34:16.977Z,64.41
2022-10-17T19:36:44.781Z,64.61
2022-10-17T19:39:13.389Z,64.71
2022-10-17T19:41:42.316Z,64.58
2022-10-17T19:44:09.992Z,64.51
2022-10-17T19:46:37.424Z,64.83
2022-10-17T19:49:05.244Z,64.66
2022-10-17T19:51:32.956Z,64.43
2022-10-17T19:54:01.160Z,64.60
2022-10-17T19:56:29.468Z,64.55
2022-10-17T19:58:58.305Z,64.69
2022-10-17T20:01:27.404Z,64.42
2022-10-17T20:03:54.957Z,64.46
2022-10-17T20:06:22.537Z,64.58
2022-10-17T20:08:50.009Z,64.44
2022-10-17T20:11:19.548Z,64.63
2022-10-17T20:13:47.025Z,64.71
2022-10-17T20:16:16.642Z,64.59
2022-10-17T20:18:44.150Z,64.44
2022-10-17T20:21:13.550Z,64.60
2022-10-17T20:23:41.194Z,64.49
2022-10-17T20:26:25.779Z,64.75
2022-10-17T20:28:53.773Z,64.50
2022-10-17T20:31:23.857Z,64.55
2022-10-17T20:33:54.882Z,64.70
2022-10-17T20:36:23.501Z,64.78
2022-10-17T20:38:53.865Z,64.62
2022-10-17T20:41:21.423Z,64.59
2022-10-17T20:43:50.861Z,64.58
2022-10-17T20:46:35.115Z,64.89
2022-10-17T20:49:04.703Z,64.64
2022-10-17T20:51:32.128Z,64.64
2022-10-17T20:53:59.596Z,64.74
2022-10-17T20:56:27.885Z,64.68
2022-10-17T20:58:56.157Z,64.79
2022-10-17T21:01:23.795Z,64.64
2022-10-17T21:03:51.268Z,64.58
2022-10-17T21:06:20.108Z,64.63
2022-10-17T21:08:48.185Z,64.63
2022-10-17T21:11:16.872Z,64.64
2022-10-17T21:13:44.338Z,64.62
2022-10-17T21:16:12.574Z,64.67
2022-10-17T21:18:40.317Z,64.67
2022-10-17T21:21:09.500Z,64.79
2022-10-17T21:23:38.361Z,64.57
2022-10-17T21:26:07.264Z,64.70
2022-10-17T21:28:35.446Z,64.59
2022-10-17T21:31:13.920Z,64.63
2022-10-17T21:33:41.802Z,64.73
2022-10-17T21:36:09.644Z,64.92
2022-10-17T21:38:38.562Z,64.54
2022-10-17T21:41:06.488Z,64.75
2022-10-17T21:43:34.478Z,64.40
2022-10-17T21:46:03.470Z,65.04
2022-10-17T21:48:30.990Z,64.71
2022-10-17T21:51:00.528Z,64.98
2022-10-17T21:53:28.026Z,64.87
2022-10-17T21:55:59.370Z,64.81
2022-10-17T21:58:26.805Z,64.70
2022-10-17T22:00:54.249Z,64.74
2022-10-17T22:03:21.704Z,64.63
2022-10-17T22:05:49.187Z,64.75
2022-10-17T22:08:16.686Z,64.70
2022-10-17T22:10:44.160Z,64.77
2022-10-17T22:13:12.978Z,64.87
2022-10-17T22:15:40.432Z,64.82
2022-10-17T22:18:07.922Z,64.93
2022-10-17T22:20:35.358Z,64.80
2022-10-17T22:23:02.828Z,64.76
2022-10-17T22:25:30.269Z,64.80
2022-10-17T22:27:57.728Z,64.79
2022-10-17T22:30:26.513Z,64.87
2022-10-17T22:32:53.961Z,64.90
2022-10-17T22:35:21.419Z,65.01
2022-10-17T22:37:48.854Z,64.95
2022-10-17T22:40:16.470Z,65.07
2022-10-17T22:42:43.917Z,64.99
2022-10-17T22:45:11.629Z,65.08
2022-10-17T22:47:40.388Z,64.85
2022-10-17T22:50:08.278Z,64.85
2022-10-17T22:52:35.712Z,65.12
2022-10-17T22:55:04.413Z,65.19
2022-10-17T22:57:31.867Z,64.88
2022-10-17T22:59:59.343Z,65.19
2022-10-17T23:02:26.828Z,64.85
2022-10-17T23:04:55.694Z,64.99
2022-10-17T23:07:23.124Z,64.96
2022-10-17T23:09:50.630Z,65.13
2022-10-17T23:12:18.166Z,65.19
2022-10-17T23:14:45.813Z,65.17
2022-10-17T23:17:13.689Z,65.25
2022-10-17T23:19:41.385Z,65.12
2022-10-17T23:22:10.249Z,65.09
2022-10-17T23:24:37.686Z,64.97
2022-10-17T23:27:05.143Z,65.32
2022-10-17T23:29:33.043Z,65.11
2022-10-17T23:32:00.473Z,65.27
2022-10-17T23:34:28.170Z,65.27
2022-10-17T23:36:55.631Z,65.27
2022-10-17T23:39:24.448Z,65.08
2022-10-17T23:41:51.904Z,65.16
2022-10-17T23:44:19.362Z,65.20
2022-10-17T23:46:46.821Z,65.12
2022-10-17T23:49:14.439Z,65.30
2022-10-17T23:51:41.881Z,65.24
2022-10-17T23:54:09.332Z,65.06
2022-10-17T23:56:38.113Z,65.15
2022-10-17T23:59:05.549Z,65.25
